Time;durP1;ratioP1;P1;durP2;ratioP2;P2;SDS_P1;SDS_P2;PMS_P1;PMS_P2;Temp;Humidity;BMP_temperature;BMP_pressure;BME280_temperature;BME280_humidity;BME280_pressure;Samples;Min_cycle;Max_cycle;Signal;HPM_P1;HPM_P2
2024/02/24 00:02:17;;;;;;;2.30;1.25;;;9.10;66.70;10.90;99161.00;;;;5022987;28;20216;-70
2024/02/24 00:04:44;;;;;;;2.33;1.10;;;9.10;66.70;10.80;99165.00;;;;5016767;28;20256;-70
2024/02/24 00:07:11;;;;;;;1.42;0.70;;;9.10;66.70;10.80;99179.00;;;;5007710;28;20281;-69
2024/02/24 00:09:40;;;;;;;1.33;0.60;;;9.10;66.80;10.80;99173.00;;;;4993098;28;20633;-69
2024/02/24 00:12:08;;;;;;;1.40;0.70;;;9.10;66.90;10.80;99174.00;;;;5002872;28;20718;-69
2024/02/24 00:14:35;;;;;;;0.50;0.40;;;9.00;66.90;10.80;99174.00;;;;5019024;28;20225;-69
2024/02/24 00:17:04;;;;;;;1.20;0.68;;;9.00;66.90;10.80;99173.00;;;;5022090;28;20326;-69
2024/02/24 00:19:31;;;;;;;0.95;0.40;;;9.00;66.90;10.70;99170.00;;;;5018963;28;20755;-70
2024/02/24 00:21:59;;;;;;;0.98;0.70;;;9.00;66.90;10.70;99168.00;;;;5023350;28;20287;-70
2024/02/24 00:24:29;;;;;;;0.65;0.40;;;9.00;67.00;10.70;99172.00;;;;5012969;28;20228;-69
2024/02/24 00:26:58;;;;;;;1.58;0.55;;;9.00;67.00;10.70;99168.00;;;;5013354;28;20266;-70
2024/02/24 00:29:25;;;;;;;0.70;0.47;;;9.00;67.00;10.70;99170.00;;;;5016139;28;20284;-70
2024/02/24 00:31:52;;;;;;;0.47;0.40;;;9.00;67.00;10.70;99173.00;;;;5011912;28;20335;-70
2024/02/24 00:34:19;;;;;;;0.47;0.30;;;9.00;67.00;10.70;99176.00;;;;5018544;28;20367;-69
2024/02/24 00:36:46;;;;;;;0.63;0.40;;;8.90;67.00;10.70;99175.00;;;;5021398;28;20319;-69
2024/02/24 00:39:13;;;;;;;0.60;0.43;;;8.90;67.10;10.60;99174.00;;;;5016921;28;20284;-69
2024/02/24 00:41:40;;;;;;;0.43;0.32;;;8.90;67.00;10.60;99175.00;;;;5017602;28;20291;-69
2024/02/24 00:44:09;;;;;;;1.17;0.52;;;8.90;67.00;10.60;99174.00;;;;5018081;28;20633;-69
2024/02/24 00:46:37;;;;;;;0.85;0.52;;;8.90;67.00;10.60;99174.00;;;;5017484;28;20250;-69
2024/02/24 00:49:04;;;;;;;0.95;0.45;;;8.90;67.10;10.60;99167.00;;;;5024566;28;20195;-69
2024/02/24 00:51:31;;;;;;;1.67;0.43;;;8.90;67.00;10.60;99168.00;;;;5023979;28;20199;-69
2024/02/24 00:53:58;;;;;;;1.67;0.50;;;8.80;66.90;10.60;99173.00;;;;4992694;28;20280;-69
2024/02/24 00:56:26;;;;;;;3.03;0.70;;;8.80;66.90;10.50;99166.00;;;;4992071;28;20296;-69
2024/02/24 00:58:53;;;;;;;1.10;0.35;;;8.80;67.00;10.50;99177.00;;;;5001649;28;20213;-69
2024/02/24 01:01:21;;;;;;;0.80;0.47;;;8.80;66.90;10.50;99182.00;;;;5003323;28;20200;-70
2024/02/24 01:03:48;;;;;;;1.27;0.60;;;8.80;66.90;10.50;99177.00;;;;5008164;28;20746;-70
2024/02/24 01:06:15;;;;;;;0.98;0.50;;;8.80;67.00;10.50;99178.00;;;;4991378;28;20201;-70
2024/02/24 01:08:42;;;;;;;1.38;0.68;;;8.70;66.90;10.50;99175.00;;;;4996262;28;20279;-71
2024/02/24 01:11:10;;;;;;;2.22;0.88;;;8.70;66.90;10.40;99175.00;;;;5014304;28;20548;-70
2024/02/24 01:13:37;;;;;;;3.63;0.60;;;8.70;67.00;10.40;99183.00;;;;5011772;28;20201;-70
2024/02/24 01:16:05;;;;;;;1.67;0.47;;;8.70;67.10;10.40;99186.00;;;;5005367;28;20229;-70
2024/02/24 01:18:36;;;;;;;0.60;0.40;;;8.70;67.10;10.40;99177.00;;;;5023127;28;20220;-70
2024/02/24 01:21:03;;;;;;;0.93;0.50;;;8.70;67.10;10.40;99182.00;;;;5017982;28;20284;-70
2024/02/24 01:23:31;;;;;;;0.60;0.50;;;8.60;67.00;10.40;99171.00;;;;5011848;28;20561;-70
2024/02/24 01:25:58;;;;;;;2.20;0.40;;;8.60;67.00;10.40;99177.00;;;;5016369;28;20238;-70
2024/02/24 01:28:25;;;;;;;0.95;0.43;;;8.60;67.00;10.40;99181.00;;;;5020257;28;20242;-70
2024/02/24 01:30:52;;;;;;;1.50;0.40;;;8.60;67.00;10.40;99190.00;;;;5004245;28;20202;-70
2024/02/24 01:33:19;;;;;;;1.52;0.63;;;8.60;67.10;10.40;99180.00;;;;4993207;28;20307;-70
2024/02/24 01:35:48;;;;;;;0.98;0.57;;;8.60;67.00;10.30;99181.00;;;;4992787;28;20206;-70
2024/02/24 01:38:15;;;;;;;1.25;0.60;;;8.60;67.00;10.30;99188.00;;;;4990670;28;20229;-70
2024/02/24 01:40:42;;;;;;;1.13;0.47;;;8.60;67.00;10.30;99187.00;;;;5006666;28;20193;-70
2024/02/24 01:43:26;;;;;;;0.70;0.50;;;8.50;67.00;10.20;99191.00;;;;5010194;28;20296;-70
2024/02/24 01:45:55;;;;;;;1.40;0.40;;;8.50;67.70;10.30;99187.00;;;;5010780;28;20259;-70
2024/02/24 01:48:22;;;;;;;2.92;0.75;;;8.50;67.00;10.30;99186.00;;;;5011203;28;20208;-70
2024/02/24 01:50:53;;;;;;;1.35;0.70;;;8.50;66.80;10.20;99194.00;;;;4992490;28;20209;-70
2024/02/24 01:53:21;;;;;;;0.65;0.50;;;8.50;66.90;10.20;99193.00;;;;4995952;28;20293;-70
2024/02/24 01:55:51;;;;;;;1.55;0.55;;;8.50;66.90;10.20;99196.00;;;;5003567;28;20289;-70
2024/02/24 01:58:19;;;;;;;1.40;0.90;;;8.40;66.90;10.20;99198.00;;;;5001463;28;20343;-70
2024/02/24 02:00:46;;;;;;;1.10;0.57;;;8.40;66.90;10.20;99195.00;;;;5007341;28;20303;-70
2024/02/24 02:03:14;;;;;;;1.90;0.70;;;8.40;66.90;10.20;99201.00;;;;5011675;28;20208;-70
2024/02/24 02:05:42;;;;;;;1.27;0.70;;;8.40;67.00;10.20;99202.00;;;;5008952;28;20295;-70
2024/02/24 02:08:10;;;;;;;1.63;0.55;;;8.40;67.10;10.20;99204.00;;;;5003219;28;20499;-70
2024/02/24 02:10:46;;;;;;;0.98;0.60;;;8.30;67.20;10.10;99198.00;;;;5002875;28;20276;-70
2024/02/24 02:13:13;;;;;;;1.10;0.60;;;8.40;67.40;10.20;99207.00;;;;5011786;28;20193;-70
2024/02/24 02:15:41;;;;;;;0.82;0.68;;;8.30;67.30;10.20;99210.00;;;;4992615;28;20698;-70
2024/02/24 02:18:08;;;;;;;1.45;0.60;;;8.30;67.40;10.20;99209.00;;;;5001506;28;20311;-70
2024/02/24 02:20:35;;;;;;;2.17;0.98;;;8.30;67.30;10.20;99212.00;;;;4996206;28;20264;-70
2024/02/24 02:23:05;;;;;;;1.20;0.88;;;8.30;67.30;10.10;99214.00;;;;4991919;28;20293;-70
2024/02/24 02:25:32;;;;;;;1.40;0.95;;;8.30;67.50;10.20;99224.00;;;;4991577;28;20201;-70
2024/02/24 02:27:59;;;;;;;0.85;0.60;;;8.40;67.60;10.20;99219.00;;;;5003894;28;20297;-70
2024/02/24 02:30:26;;;;;;;1.85;1.08;;;8.40;67.80;10.20;99222.00;;;;4991782;28;20696;-70
2024/02/24 02:32:53;;;;;;;2.75;1.30;;;8.40;67.80;10.30;99220.00;;;;4994585;28;20198;-70
2024/02/24 02:35:21;;;;;;;1.20;0.88;;;8.40;67.90;10.20;99218.00;;;;4991182;28;20204;-70
2024/02/24 02:37:49;;;;;;;0.90;0.70;;;8.50;68.00;10.30;99222.00;;;;4989471;28;20209;-70
2024/02/24 02:40:17;;;;;;;1.92;1.00;;;8.50;68.00;10.30;99218.00;;;;4993996;28;20292;-70
2024/02/24 02:42:45;;;;;;;1.88;1.27;;;8.50;68.00;10.30;99218.00;;;;4995672;28;20201;-70
2024/02/24 02:45:12;;;;;;;1.10;0.85;;;8.50;68.00;10.30;99221.00;;;;5005749;28;20287;-70
2024/02/24 02:47:39;;;;;;;1.90;0.75;;;8.60;68.10;10.40;99215.00;;;;5007658;28;20683;-70
2024/02/24 02:50:08;;;;;;;1.33;0.88;;;8.60;68.00;10.40;99220.00;;;;5003942;28;20201;-70
2024/02/24 02:52:35;;;;;;;1.35;0.82;;;8.60;68.00;10.40;99212.00;;;;5001388;28;20193;-70
2024/02/24 02:55:03;;;;;;;1.55;1.00;;;8.60;67.90;10.40;99212.00;;;;5008080;28;20285;-70
2024/02/24 02:57:31;;;;;;;1.38;1.27;;;8.60;67.80;10.40;99215.00;;;;5002607;28;20228;-70
2024/02/24 02:59:58;;;;;;;1.15;0.88;;;8.60;67.80;10.40;99210.00;;;;4994847;28;20213;-70
2024/02/24 03:02:25;;;;;;;1.27;1.10;;;8.70;67.80;10.50;99224.00;;;;4995689;28;20301;-70
2024/02/24 03:04:53;;;;;;;1.38;0.93;;;8.70;68.50;10.50;99226.00;;;;4998926;28;20227;-70
2024/02/24 03:07:20;;;;;;;1.90;0.90;;;8.70;67.80;10.50;99227.00;;;;4994361;28;20213;-70
2024/02/24 03:09:48;;;;;;;1.42;1.00;;;8.70;67.80;10.50;99222.00;;;;4994295;28;20284;-70
2024/02/24 03:12:15;;;;;;;1.90;1.23;;;8.70;67.90;10.50;99222.00;;;;4995120;28;20280;-70
2024/02/24 03:14:44;;;;;;;1.45;0.80;;;8.70;67.90;10.50;99224.00;;;;5003480;28;20256;-70
2024/02/24 03:17:12;;;;;;;2.50;1.15;;;8.80;67.90;10.60;99223.00;;;;5007359;28;20284;-70
2024/02/24 03:19:40;;;;;;;1.20;0.80;;;8.80;67.90;10.60;99224.00;;;;5007611;28;20735;-70
2024/02/24 03:22:07;;;;;;;1.52;1.02;;;8.80;67.80;10.60;99223.00;;;;4998210;28;20644;-70
2024/02/24 03:24:34;;;;;;;1.17;0.93;;;8.80;67.80;10.60;99226.00;;;;4994416;28;20300;-70
2024/02/24 03:27:02;;;;;;;1.90;0.93;;;8.80;67.80;10.60;99223.00;;;;5004430;28;20291;-69
2024/02/24 03:29:29;;;;;;;1.02;0.80;;;8.80;67.80;10.60;99231.00;;;;4994079;28;20635;-70
2024/02/24 03:31:57;;;;;;;1.25;1.13;;;8.80;67.70;10.60;99222.00;;;;5001248;28;20292;-69
2024/02/24 03:34:24;;;;;;;0.90;0.73;;;8.80;67.70;10.60;99219.00;;;;4997285;28;20193;-70
2024/02/24 03:36:51;;;;;;;1.33;0.80;;;8.80;67.60;10.60;99220.00;;;;4993529;28;20289;-70
2024/02/24 03:39:19;;;;;;;1.50;0.82;;;8.80;67.50;10.60;99215.00;;;;5009209;28;20316;-70
2024/02/24 03:41:46;;;;;;;1.25;0.88;;;8.90;67.60;10.60;99214.00;;;;5000259;28;20208;-70
2024/02/24 03:44:13;;;;;;;0.82;0.65;;;8.90;67.50;10.60;99219.00;;;;4995905;28;20206;-70
2024/02/24 03:46:40;;;;;;;1.98;1.20;;;8.80;67.50;10.50;99219.00;;;;4993105;28;20284;-70
2024/02/24 03:49:09;;;;;;;1.60;1.10;;;8.80;67.50;10.50;99219.00;;;;4993841;28;20225;-70
2024/02/24 03:51:36;;;;;;;2.25;1.00;;;8.80;67.50;10.50;99221.00;;;;4993096;28;20281;-70
2024/02/24 03:54:03;;;;;;;1.77;1.10;;;8.80;67.50;10.50;99217.00;;;;4993665;28;20197;-70
2024/02/24 03:56:30;;;;;;;1.58;1.23;;;8.80;67.40;10.50;99222.00;;;;4993641;28;20236;-70
2024/02/24 03:58:57;;;;;;;2.75;1.13;;;8.80;67.40;10.50;99214.00;;;;4999604;28;20230;-70
2024/02/24 04:01:27;;;;;;;2.65;1.00;;;8.80;67.40;10.50;99217.00;;;;5008825;28;20292;-70
2024/02/24 04:03:55;;;;;;;1.08;0.82;;;8.80;67.40;10.50;99224.00;;;;5010957;28;20212;-70
2024/02/24 04:06:23;;;;;;;1.75;0.70;;;8.70;67.20;10.50;99221.00;;;;5008548;28;20734;-70
2024/02/24 04:08:50;;;;;;;1.50;0.80;;;8.70;67.20;10.50;99230.00;;;;5007849;28;20667;-70
2024/02/24 04:11:18;;;;;;;1.70;1.00;;;8.70;67.20;10.40;99232.00;;;;5006264;28;20291;-70
2024/02/24 04:13:45;;;;;;;1.83;0.82;;;8.70;67.20;10.40;99233.00;;;;4997121;28;20202;-70
2024/02/24 04:16:12;;;;;;;1.23;0.80;;;8.60;67.20;10.40;99231.00;;;;5012319;28;20574;-70
2024/02/24 04:18:39;;;;;;;1.05;0.85;;;8.60;67.10;10.40;99235.00;;;;5001861;28;20252;-70
2024/02/24 04:21:06;;;;;;;1.77;1.17;;;8.60;67.20;10.40;99232.00;;;;4992863;28;20205;-70
2024/02/24 04:23:35;;;;;;;1.48;0.93;;;8.60;67.20;10.30;99226.00;;;;5008015;28;20280;-70
2024/02/24 04:26:02;;;;;;;1.67;1.00;;;8.60;67.10;10.30;99236.00;;;;4997497;28;20364;-70
2024/02/24 04:28:29;;;;;;;1.20;1.00;;;8.50;67.10;10.30;99235.00;;;;4992242;28;20289;-70
2024/02/24 04:30:56;;;;;;;2.22;0.98;;;8.50;67.20;10.20;99232.00;;;;4991841;28;20297;-70
2024/02/24 04:33:23;;;;;;;1.60;0.90;;;8.50;67.10;10.20;99240.00;;;;4992611;28;20281;-70
2024/02/24 04:35:50;;;;;;;1.95;0.90;;;8.40;67.20;10.20;99238.00;;;;4992958;28;20653;-70
2024/02/24 04:38:17;;;;;;;1.00;0.90;;;8.40;67.20;10.20;99244.00;;;;4995411;28;20686;-70
2024/02/24 04:40:45;;;;;;;2.03;1.10;;;8.40;67.10;10.20;99247.00;;;;4992647;28;20194;-70
2024/02/24 04:43:13;;;;;;;2.42;1.00;;;8.40;67.20;10.10;99245.00;;;;4992035;28;20281;-70
2024/02/24 04:45:40;;;;;;;2.35;0.90;;;8.40;67.20;10.20;99256.00;;;;4993311;28;20220;-70
2024/02/24 04:48:08;;;;;;;2.03;0.93;;;8.30;67.20;10.10;99257.00;;;;5000648;28;20221;-70
2024/02/24 04:50:35;;;;;;;1.35;1.20;;;8.30;67.20;10.10;99265.00;;;;4999518;28;20201;-70
2024/02/24 04:53:02;;;;;;;1.42;1.10;;;8.30;67.30;10.10;99261.00;;;;4992354;28;20244;-70
2024/02/24 04:55:29;;;;;;;1.58;1.20;;;8.30;67.30;10.10;99263.00;;;;5008562;28;20229;-70
2024/02/24 04:57:58;;;;;;;1.80;1.30;;;8.30;67.40;10.10;99270.00;;;;4997512;28;20202;-70
2024/02/24 05:00:25;;;;;;;1.65;1.23;;;8.30;67.50;10.10;99276.00;;;;4993186;28;20221;-70
2024/02/24 05:02:52;;;;;;;1.33;1.00;;;8.20;67.50;10.10;99276.00;;;;5002727;28;20304;-70
2024/02/24 05:05:19;;;;;;;2.72;1.10;;;8.30;67.60;10.00;99277.00;;;;4997408;28;20220;-70
2024/02/24 05:07:46;;;;;;;1.63;1.15;;;8.30;67.70;10.10;99281.00;;;;5003693;28;20233;-70
2024/02/24 05:10:14;;;;;;;1.95;1.00;;;8.30;67.80;10.10;99281.00;;;;4995379;28;20296;-70
2024/02/24 05:12:47;;;;;;;1.40;1.08;;;8.30;67.90;10.10;99282.00;;;;4997792;28;20225;-70
2024/02/24 05:15:17;;;;;;;1.77;1.08;;;8.30;68.00;10.10;99289.00;;;;4994119;28;20237;-70
2024/02/24 05:17:44;;;;;;;1.98;1.13;;;8.30;68.00;10.20;99292.00;;;;4991062;28;20920;-70
2024/02/24 05:20:13;;;;;;;1.52;1.17;;;8.30;68.00;10.20;99297.00;;;;4993246;28;20304;-70
2024/02/24 05:22:40;;;;;;;1.70;1.05;;;8.30;68.10;10.20;99297.00;;;;4999057;28;20205;-70
2024/02/24 05:25:09;;;;;;;1.50;1.27;;;8.40;68.20;10.20;99298.00;;;;4991590;28;20292;-70
2024/02/24 05:27:36;;;;;;;1.50;1.30;;;8.40;68.20;10.30;99297.00;;;;4992175;28;20285;-70
2024/02/24 05:30:04;;;;;;;2.20;1.10;;;8.40;68.20;10.30;99300.00;;;;5001226;28;20296;-70
2024/02/24 05:32:33;;;;;;;1.73;1.33;;;8.50;68.30;10.30;99304.00;;;;4991199;28;20229;-70
2024/02/24 05:35:00;;;;;;;1.70;1.40;;;8.50;68.30;10.30;99310.00;;;;4991574;28;20201;-70
2024/02/24 05:37:27;;;;;;;1.60;1.33;;;8.50;68.30;10.40;99312.00;;;;5003684;28;20194;-70
2024/02/24 05:39:54;;;;;;;2.13;1.35;;;8.50;68.30;10.40;99308.00;;;;4993369;28;20253;-70
2024/02/24 05:42:21;;;;;;;1.60;1.48;;;8.50;68.20;10.40;99313.00;;;;4992389;28;20281;-70
2024/02/24 05:44:48;;;;;;;2.33;1.75;;;8.60;68.30;10.40;99318.00;;;;5005753;28;20568;-69
2024/02/24 05:47:15;;;;;;;1.65;1.35;;;8.60;68.30;10.40;99320.00;;;;4995325;28;20284;-70
2024/02/24 05:49:44;;;;;;;1.70;1.52;;;8.60;68.40;10.50;99317.00;;;;4994838;28;20275;-70
2024/02/24 05:52:11;;;;;;;2.00;1.42;;;8.60;68.40;10.50;99321.00;;;;5002935;28;20628;-70
2024/02/24 05:54:41;;;;;;;1.70;1.52;;;8.70;68.50;10.50;99326.00;;;;4993121;28;20280;-70
2024/02/24 05:57:08;;;;;;;2.28;1.70;;;8.70;68.40;10.50;99326.00;;;;5004188;28;20291;-70
2024/02/24 05:59:36;;;;;;;2.70;1.80;;;8.70;68.40;10.60;99328.00;;;;5010835;28;20271;-70
2024/02/24 06:02:03;;;;;;;3.03;2.05;;;8.70;68.40;10.60;99329.00;;;;5006264;28;20300;-70
2024/02/24 06:04:30;;;;;;;4.40;2.38;;;8.80;68.40;10.60;99330.00;;;;4994237;28;20198;-70
2024/02/24 06:06:59;;;;;;;2.38;1.90;;;8.80;68.50;10.60;99326.00;;;;4991125;28;20197;-70
2024/02/24 06:09:26;;;;;;;2.97;2.10;;;8.80;68.50;10.70;99326.00;;;;4997924;28;20281;-70
2024/02/24 06:11:53;;;;;;;2.60;2.28;;;8.90;68.50;10.70;99329.00;;;;4998509;28;20220;-70
2024/02/24 06:14:20;;;;;;;3.50;2.58;;;8.90;68.50;10.70;99325.00;;;;4993375;28;20564;-70
2024/02/24 06:16:47;;;;;;;3.97;2.70;;;8.90;68.40;10.70;99328.00;;;;4997774;28;20312;-70
2024/02/24 06:19:14;;;;;;;3.40;2.35;;;8.90;68.30;10.70;99330.00;;;;4994406;28;20245;-70
2024/02/24 06:21:42;;;;;;;3.17;2.58;;;8.90;68.20;10.70;99337.00;;;;4994696;28;20248;-70
2024/02/24 06:24:10;;;;;;;3.05;2.75;;;8.90;68.10;10.70;99336.00;;;;5008816;28;20283;-70
2024/02/24 06:26:37;;;;;;;3.85;3.00;;;8.90;68.00;10.60;99349.00;;;;5005769;28;20280;-70
2024/02/24 06:29:04;;;;;;;3.97;2.95;;;8.90;67.90;10.60;99352.00;;;;5008476;28;20249;-70
2024/02/24 06:31:32;;;;;;;3.15;2.75;;;8.90;67.90;10.60;99351.00;;;;4997602;28;20198;-70
2024/02/24 06:33:59;;;;;;;3.70;3.00;;;8.90;67.90;10.70;99358.00;;;;4995495;28;20197;-70
2024/02/24 06:36:28;;;;;;;3.70;3.13;;;8.90;68.00;10.70;99359.00;;;;5012854;28;20201;-70
2024/02/24 06:38:56;;;;;;;3.42;2.65;;;8.90;68.10;10.70;99360.00;;;;5001647;28;20237;-70
2024/02/24 06:41:26;;;;;;;4.13;3.00;;;8.90;68.20;10.70;99362.00;;;;4995027;28;20198;-70
2024/02/24 06:43:53;;;;;;;4.85;3.00;;;8.90;68.40;10.70;99368.00;;;;5005624;28;20312;-70
2024/02/24 06:46:20;;;;;;;4.30;2.92;;;9.00;68.50;10.80;99364.00;;;;4996092;28;20270;-70
2024/02/24 06:48:47;;;;;;;3.83;3.05;;;9.00;68.50;10.80;99375.00;;;;4998701;28;20287;-70
2024/02/24 06:51:16;;;;;;;3.33;2.83;;;9.00;68.50;10.80;99375.00;;;;5019549;28;20620;-70
2024/02/24 06:53:44;;;;;;;6.10;2.90;;;9.00;68.60;10.90;99375.00;;;;5018003;28;20595;-70
2024/02/24 06:56:11;;;;;;;3.08;2.63;;;9.10;68.70;10.90;99378.00;;;;5017826;28;20288;-70
2024/02/24 06:58:41;;;;;;;6.05;3.05;;;9.10;68.60;11.00;99374.00;;;;5010240;28;20225;-70
2024/02/24 07:01:08;;;;;;;3.25;2.88;;;9.20;68.80;11.00;99384.00;;;;4993751;28;20290;-70
2024/02/24 07:03:35;;;;;;;3.13;2.83;;;9.20;68.70;11.10;99383.00;;;;5004709;28;20193;-70
2024/02/24 07:06:04;;;;;;;3.58;2.67;;;9.30;68.80;11.10;99391.00;;;;4999201;28;20722;-70
2024/02/24 07:08:32;;;;;;;3.47;2.90;;;9.30;68.80;11.20;99397.00;;;;5003269;28;20248;-70
2024/02/24 07:11:03;;;;;;;3.20;2.75;;;9.30;68.70;11.20;99398.00;;;;4996666;28;20225;-70
2024/02/24 07:13:30;;;;;;;4.53;2.65;;;9.40;68.80;11.20;99394.00;;;;4993495;28;20215;-70
2024/02/24 07:16:01;;;;;;;3.25;2.65;;;9.40;68.80;11.30;99401.00;;;;5007945;28;20252;-70
2024/02/24 07:18:33;;;;;;;3.00;2.35;;;9.50;68.70;11.30;99403.00;;;;4997174;28;20563;-70
2024/02/24 07:21:04;;;;;;;5.47;3.00;;;9.50;68.60;11.30;99404.00;;;;4994409;28;20232;-70
2024/02/24 07:23:37;;;;;;;2.63;2.42;;;9.50;68.60;11.40;99412.00;;;;5018541;28;20659;-70
2024/02/24 07:26:07;;;;;;;3.75;2.63;;;9.60;68.60;11.40;99413.00;;;;5015373;28;20210;-70
2024/02/24 07:28:37;;;;;;;3.13;2.67;;;9.60;68.60;11.50;99412.00;;;;5006006;28;20229;-70
2024/02/24 07:31:07;;;;;;;3.05;2.50;;;9.60;68.50;11.50;99421.00;;;;4999211;28;20203;-70
2024/02/24 07:33:35;;;;;;;5.25;2.72;;;9.70;68.60;11.60;99422.00;;;;4994119;28;20651;-70
2024/02/24 07:36:05;;;;;;;3.92;2.42;;;9.70;68.60;11.60;99432.00;;;;4994732;28;20206;-70
2024/02/24 07:38:34;;;;;;;2.75;2.45;;;9.80;68.60;11.60;99431.00;;;;4998629;28;20216;-70
2024/02/24 07:41:03;;;;;;;3.08;2.58;;;9.80;68.60;11.70;99424.00;;;;5003656;28;20211;-70
2024/02/24 07:43:36;;;;;;;2.65;2.22;;;9.80;68.50;11.70;99434.00;;;;4999871;28;20304;-70
2024/02/24 07:46:06;;;;;;;3.30;2.38;;;9.90;68.60;11.70;99431.00;;;;4993163;28;20198;-70
2024/02/24 07:48:37;;;;;;;4.18;2.55;;;9.90;68.50;11.80;99432.00;;;;4993496;28;20585;-70
2024/02/24 07:51:07;;;;;;;3.83;2.85;;;9.90;68.50;11.80;99429.00;;;;5004619;28;20233;-70
2024/02/24 07:53:34;;;;;;;3.42;2.30;;;10.00;68.50;11.80;99444.00;;;;5001217;28;20208;-70
2024/02/24 07:56:01;;;;;;;3.22;2.33;;;10.00;68.50;11.90;99441.00;;;;5009737;28;20296;-70
2024/02/24 07:58:28;;;;;;;3.63;2.55;;;10.00;68.50;11.90;99442.00;;;;4996150;28;20288;-69
2024/02/24 08:00:56;;;;;;;3.67;2.92;;;10.10;68.50;12.00;99443.00;;;;4994299;28;20324;-70
2024/02/24 08:03:24;;;;;;;5.97;2.60;;;10.10;68.50;12.00;99440.00;;;;4995630;28;20233;-67
2024/02/24 08:05:51;;;;;;;2.88;2.53;;;10.20;68.50;12.00;99456.00;;;;5003924;28;20208;-67
2024/02/24 08:08:19;;;;;;;2.90;2.40;;;10.20;68.40;12.10;99451.00;;;;5008518;28;20284;-67
2024/02/24 08:10:46;;;;;;;3.38;2.50;;;10.20;68.30;12.10;99451.00;;;;4994036;28;20609;-68
2024/02/24 08:13:14;;;;;;;3.67;3.05;;;10.20;68.20;12.10;99459.00;;;;5008180;28;20260;-68
2024/02/24 08:15:41;;;;;;;2.95;2.65;;;10.30;68.30;12.20;99459.00;;;;5002719;28;20272;-68
2024/02/24 08:18:08;;;;;;;3.30;2.50;;;10.30;68.30;12.20;99468.00;;;;5012987;28;20207;-68
2024/02/24 08:20:37;;;;;;;3.70;3.05;;;10.40;68.40;12.20;99461.00;;;;5000455;28;20236;-68
2024/02/24 08:23:04;;;;;;;3.13;2.30;;;10.40;68.40;12.30;99463.00;;;;5007428;28;20292;-68
2024/02/24 08:25:31;;;;;;;3.17;2.58;;;10.40;69.10;12.30;99463.00;;;;5004672;28;20201;-68
2024/02/24 08:27:58;;;;;;;3.05;2.55;;;10.50;68.50;12.40;99474.00;;;;4993208;28;20280;-68
2024/02/24 08:30:25;;;;;;;4.22;2.30;;;10.50;68.50;12.40;99476.00;;;;4999932;28;20290;-69
2024/02/24 08:32:52;;;;;;;2.05;1.83;;;10.50;68.50;12.40;99472.00;;;;5010818;28;20196;-68
2024/02/24 08:35:20;;;;;;;2.53;2.30;;;10.60;68.40;12.50;99471.00;;;;5005784;28;20288;-69
2024/02/24 08:37:48;;;;;;;3.30;2.65;;;10.60;68.40;12.50;99474.00;;;;4994978;28;20228;-69
2024/02/24 08:40:16;;;;;;;3.15;2.25;;;10.60;68.30;12.50;99483.00;;;;4997611;28;20312;-69
2024/02/24 08:42:44;;;;;;;3.03;2.55;;;10.70;68.20;12.60;99483.00;;;;4992475;28;20198;-69
2024/02/24 08:45:11;;;;;;;2.63;2.15;;;10.70;68.10;12.50;99487.00;;;;4992676;28;20217;-69
2024/02/24 08:47:38;;;;;;;4.10;2.47;;;10.70;67.90;12.50;99496.00;;;;4999589;28;20733;-70
2024/02/24 08:50:07;;;;;;;2.65;2.33;;;10.70;67.80;12.50;99508.00;;;;5004728;28;20283;-69
2024/02/24 08:52:34;;;;;;;2.50;2.10;;;10.70;67.50;12.50;99500.00;;;;4993227;28;20621;-69
2024/02/24 08:55:03;;;;;;;1.77;1.52;;;10.70;67.20;12.40;99508.00;;;;4997277;28;20739;-69
2024/02/24 08:57:30;;;;;;;1.65;1.55;;;10.70;67.20;12.40;99507.00;;;;4994278;28;20277;-69
2024/02/24 08:59:57;;;;;;;3.17;1.63;;;10.70;67.00;12.30;99497.00;;;;5000521;28;20333;-69
2024/02/24 09:02:24;;;;;;;1.70;1.55;;;10.60;67.00;12.30;99503.00;;;;4994980;28;20288;-69
2024/02/24 09:04:51;;;;;;;2.35;1.60;;;10.60;67.10;12.30;99509.00;;;;4992888;28;20288;-69
2024/02/24 09:07:20;;;;;;;1.67;1.40;;;10.50;67.00;12.30;99517.00;;;;4992952;28;20292;-69
2024/02/24 09:09:47;;;;;;;1.40;1.30;;;10.50;67.10;12.40;99521.00;;;;5006331;28;20316;-69
2024/02/24 09:12:16;;;;;;;1.60;1.38;;;10.60;67.30;12.40;99522.00;;;;4992303;28;20281;-69
2024/02/24 09:14:43;;;;;;;1.27;1.17;;;10.60;67.40;12.50;99522.00;;;;4993008;28;20189;-69
2024/02/24 09:17:10;;;;;;;2.20;1.70;;;10.60;67.60;12.50;99523.00;;;;5001561;28;20315;-69
2024/02/24 09:19:38;;;;;;;2.15;1.70;;;10.60;67.90;12.60;99528.00;;;;4998011;28;20738;-69
2024/02/24 09:22:05;;;;;;;2.20;1.77;;;10.70;67.90;12.60;99524.00;;;;4991589;28;20282;-69
2024/02/24 09:24:32;;;;;;;2.47;2.00;;;10.70;68.00;12.70;99534.00;;;;4993052;28;20221;-69
2024/02/24 09:26:59;;;;;;;1.80;1.65;;;10.80;68.10;12.80;99531.00;;;;4992164;28;20193;-69
2024/02/24 09:29:28;;;;;;;2.08;1.83;;;10.80;68.30;12.80;99537.00;;;;4992858;28;20284;-70
2024/02/24 09:31:55;;;;;;;2.17;1.98;;;10.90;68.40;13.00;99534.00;;;;4999260;28;20251;-69
2024/02/24 09:34:22;;;;;;;2.80;2.50;;;11.00;68.50;13.00;99534.00;;;;4997847;28;20671;-69
2024/02/24 09:36:49;;;;;;;2.92;2.63;;;11.00;68.30;13.00;99543.00;;;;4994090;28;20280;-69
2024/02/24 09:39:16;;;;;;;3.33;2.50;;;11.10;67.90;13.00;99547.00;;;;4992143;28;20206;-69
2024/02/24 09:41:43;;;;;;;2.60;2.38;;;11.20;67.80;13.10;99549.00;;;;4996891;28;20279;-69
2024/02/24 09:44:11;;;;;;;3.63;2.47;;;11.20;67.80;13.10;99546.00;;;;5010386;28;20291;-70
2024/02/24 09:46:42;;;;;;;2.95;2.65;;;11.20;67.70;13.10;99547.00;;;;4992594;28;20293;-69
2024/02/24 09:49:13;;;;;;;2.90;2.55;;;11.30;67.80;13.20;99552.00;;;;4992996;28;20196;-70
2024/02/24 09:51:43;;;;;;;3.67;2.88;;;11.30;67.70;13.30;99554.00;;;;4997299;28;20204;-69
2024/02/24 09:54:10;;;;;;;3.53;3.00;;;11.40;67.70;13.30;99555.00;;;;4995892;28;20915;-69
2024/02/24 09:56:38;;;;;;;4.05;3.65;;;11.40;67.50;13.40;99569.00;;;;5006037;28;20228;-70
2024/02/24 09:59:07;;;;;;;5.35;4.05;;;11.50;67.50;13.40;99564.00;;;;5006254;28;20205;-69
2024/02/24 10:01:36;;;;;;;3.75;3.42;;;11.50;67.40;13.40;99571.00;;;;5007945;28;20225;-69
2024/02/24 10:04:06;;;;;;;4.15;3.28;;;11.60;67.20;13.40;99569.00;;;;4996815;28;20197;-69
2024/02/24 10:06:35;;;;;;;3.85;3.45;;;11.60;67.00;13.50;99570.00;;;;4995654;28;20197;-69
2024/02/24 10:09:02;;;;;;;3.85;3.42;;;11.60;66.80;13.50;99585.00;;;;4996291;28;20754;-69
2024/02/24 10:11:29;;;;;;;4.75;3.45;;;11.60;66.80;13.50;99582.00;;;;4999656;28;20284;-69
2024/02/24 10:13:56;;;;;;;3.85;3.33;;;11.70;66.70;13.50;99580.00;;;;4995586;28;20747;-70
2024/02/24 10:16:24;;;;;;;4.10;3.55;;;11.70;66.60;13.60;99587.00;;;;4995198;28;20781;-69
2024/02/24 10:18:51;;;;;;;5.05;3.65;;;11.70;66.70;13.60;99584.00;;;;5004652;28;20283;-69
2024/02/24 10:21:20;;;;;;;3.58;3.25;;;11.70;66.60;13.60;99592.00;;;;5015538;28;20311;-69
2024/02/24 10:23:47;;;;;;;3.92;3.60;;;11.70;66.30;13.60;99590.00;;;;5020045;28;20276;-70
2024/02/24 10:26:16;;;;;;;5.47;3.67;;;11.70;66.30;13.50;99602.00;;;;5000779;28;20305;-70
2024/02/24 10:28:44;;;;;;;3.42;3.13;;;11.80;66.00;13.60;99601.00;;;;5000328;28;20254;-69
2024/02/24 10:31:12;;;;;;;4.00;3.60;;;11.80;66.00;13.50;99602.00;;;;4997450;28;20205;-69
2024/02/24 10:33:40;;;;;;;3.97;3.35;;;11.80;65.80;13.50;99611.00;;;;4999698;28;20256;-69
2024/02/24 10:36:09;;;;;;;3.78;3.38;;;11.70;65.90;13.50;99604.00;;;;4997787;28;20281;-70
2024/02/24 10:38:40;;;;;;;3.97;3.50;;;11.80;65.90;13.50;99612.00;;;;4999056;28;20260;-69
2024/02/24 10:41:09;;;;;;;3.65;3.22;;;11.80;65.70;13.50;99609.00;;;;4997046;28;20316;-70
2024/02/24 10:43:38;;;;;;;4.00;3.30;;;11.70;65.60;13.50;99614.00;;;;4997488;28;20205;-69
2024/02/24 10:46:05;;;;;;;4.13;3.72;;;11.70;65.60;13.50;99613.00;;;;4993395;28;20208;-69
2024/02/24 10:48:32;;;;;;;6.28;4.53;;;11.70;65.60;13.40;99622.00;;;;4993777;28;20551;-70
2024/02/24 10:51:00;;;;;;;4.97;3.70;;;11.70;65.50;13.40;99625.00;;;;4999796;28;20299;-69
2024/02/24 10:53:31;;;;;;;4.38;3.85;;;11.70;65.40;13.30;99627.00;;;;4998811;28;20251;-70
2024/02/24 10:56:02;;;;;;;5.78;3.78;;;11.60;65.10;13.20;99630.00;;;;5002855;28;20197;-70
2024/02/24 10:58:29;;;;;;;3.80;3.33;;;11.60;65.10;13.20;99625.00;;;;5013167;28;20201;-70
2024/02/24 11:00:56;;;;;;;4.18;3.47;;;11.60;65.20;13.20;99629.00;;;;5010898;28;20336;-69
2024/02/24 11:03:24;;;;;;;3.95;3.28;;;11.50;65.10;13.20;99631.00;;;;5009491;28;21245;-70